Aérodrome :
LOGIN :

S'inscrire | Disclaimer

   EN    FR    IT 

 










Légende :    VFR   VFR Marginal   IFR   IFR Intensif   IFR Très Intensif
Visi : 
Plafond : 
>= 8 km
>= 3000ft
5 à 8 km
1000 à 3000 ft
1500m à 5 km
500 à 1000 ft
800 à 1500m
200 à 500 ft
< 800m
< 200 ft
Symboles :   Orages  Brouillard  Fortes neiges  Fortes précipitations  Vent > 20 kt
SIGMETs :   Divers  Orages  Givrage  Turbulence  Onde Orograph.  Cendres Volcan.






- Altitude de l'aérodrome : 26 ft
- Code IATA : SYY


EGPO - Stornoway

DERNIER METAR :
  • 142120Z AUTO 35009KT 9999 NCD 04/M00 Q1018

METARs EXPIRÉS :
  • 142050Z AUTO 35010KT 9999 NCD 04/00 Q1018
  • 142020Z 36012KT 9999 VCSH FEW012 FEW016CB 05/01 Q1018
  • 141950Z 34008KT 9999 VCSH FEW012 FEW016CB 03/01 Q1018
  • 141920Z 32010KT 9999 VCSH FEW012 FEW016CB 03/01 Q1017
  • 141850Z 35014KT 9999 -SHRASN FEW012 SCT016CB 04/01 Q1017
  • 141820Z 34008KT 9999 VCSH FEW014CB 03/00 Q1017

TAF TAF EGPO
Valide du 14 à 21h jusqu'au 15 à 06h UTC


142000Z 1421/1506 36012KT 9999 SCT020
PROB40
TEMPO 1421/1506 01017G27KT 6000 SHRA BKN014
ATIS : +44 1851 707 444



MET'MAP, la Météo Aéronautique d'un coup d'oeil ! - Copyright ORBIFLY Décembre 2007 - Disclaimer

ORBIFLY MET'MAP TEAM :

Programmation & Développement : Alexandra Zaïnal
Conception & Développement : Baudouin d'Aumeries
Co-Programmation & Développement : Marc-Olivier Méhu
Soutien technique & logistique : Manuel Goepfert

Contact : metmap@orbifly.com




SOURCES & CREDITS :

   NOAA